createdAt,value
2018-11-29T00:00:25.788Z,13.93
2018-11-29T00:03:00.691Z,11.13
2018-11-29T00:05:35.382Z,12.00
2018-11-29T00:08:10.300Z,13.00
2018-11-29T00:10:47.308Z,11.93
2018-11-29T00:15:54.949Z,8.70
2018-11-29T00:18:29.731Z,12.07
2018-11-29T00:21:04.509Z,13.07
2018-11-29T00:23:39.289Z,13.30
2018-11-29T00:26:13.984Z,11.70
2018-11-29T00:28:48.953Z,12.73
2018-11-29T00:31:23.840Z,12.82
2018-11-29T00:33:58.819Z,12.20
2018-11-29T00:36:33.588Z,12.87
2018-11-29T00:39:09.377Z,14.03
2018-11-29T00:41:44.274Z,12.00
2018-11-29T00:46:52.291Z,10.07
2018-11-29T00:52:00.290Z,10.03
2018-11-29T00:57:08.712Z,9.83
2018-11-29T00:59:43.941Z,10.90
2018-11-29T01:02:18.899Z,14.40
2018-11-29T01:04:54.017Z,11.57
2018-11-29T01:07:28.955Z,12.15
2018-11-29T01:10:04.440Z,14.03
2018-11-29T01:12:39.275Z,11.70
2018-11-29T01:15:19.497Z,13.25
2018-11-29T01:20:28.957Z,17.05
2018-11-29T01:23:03.743Z,14.83
2018-11-29T01:25:44.074Z,12.98
2018-11-29T01:28:18.960Z,12.47
2018-11-29T01:30:55.394Z,13.85
2018-11-29T01:33:30.285Z,11.00
2018-11-29T01:36:04.805Z,11.15
2018-11-29T01:38:39.640Z,18.10
2018-11-29T01:41:14.383Z,16.00
2018-11-29T01:43:49.082Z,12.87
2018-11-29T01:46:23.953Z,11.43
2018-11-29T01:48:58.724Z,12.73
2018-11-29T01:51:33.433Z,14.43
2018-11-29T01:54:08.285Z,18.87
2018-11-29T01:59:16.303Z,14.63
2018-11-29T02:01:51.287Z,16.80
2018-11-29T02:04:26.911Z,13.20
2018-11-29T02:07:01.766Z,12.17
2018-11-29T02:09:37.284Z,14.67
2018-11-29T02:12:12.289Z,15.05
2018-11-29T02:14:47.489Z,43.20
2018-11-29T02:17:21.942Z,46.27
2018-11-29T02:19:57.343Z,16.73
2018-11-29T02:22:31.940Z,13.13
2018-11-29T02:25:06.988Z,15.07
2018-11-29T02:27:41.893Z,18.03
2018-11-29T02:30:25.294Z,11.03
2018-11-29T02:32:59.901Z,14.30
2018-11-29T02:38:08.505Z,14.83
2018-11-29T02:40:47.645Z,26.00
2018-11-29T02:43:22.625Z,14.87
2018-11-29T02:45:57.302Z,13.60
2018-11-29T02:53:37.417Z,13.47
2018-11-29T02:56:12.298Z,17.73
2018-11-29T03:01:19.391Z,16.15
2018-11-29T03:03:53.920Z,13.77
2018-11-29T03:06:28.786Z,14.97
2018-11-29T03:09:04.120Z,11.30
2018-11-29T03:11:38.895Z,14.80
2018-11-29T03:14:13.953Z,18.80
2018-11-29T03:16:48.761Z,19.73
2018-11-29T03:20:55.784Z,15.28
2018-11-29T03:23:30.959Z,13.58
2018-11-29T03:26:05.320Z,13.43
2018-11-29T03:28:39.952Z,13.62
2018-11-29T03:31:14.324Z,14.73
2018-11-29T03:33:48.953Z,13.93
2018-11-29T03:36:23.323Z,15.77
2018-11-29T03:41:30.295Z,12.67
2018-11-29T03:46:37.435Z,12.20
2018-11-29T03:49:12.298Z,17.97
2018-11-29T03:51:46.949Z,16.10
2018-11-29T03:54:22.978Z,14.28
2018-11-29T03:56:57.431Z,14.27
2018-11-29T03:59:32.328Z,12.80
2018-11-29T04:02:06.916Z,16.15
2018-11-29T04:04:41.958Z,14.95
2018-11-29T04:07:16.413Z,15.70
2018-11-29T04:09:51.315Z,11.37
2018-11-29T04:12:25.750Z,17.47
2018-11-29T04:15:00.335Z,13.53
2018-11-29T04:20:08.992Z,16.43
2018-11-29T04:22:43.762Z,13.97
2018-11-29T04:25:19.364Z,16.93
2018-11-29T04:30:27.340Z,17.37
2018-11-29T04:33:01.793Z,15.60
2018-11-29T04:35:36.373Z,11.20
2018-11-29T04:38:11.290Z,13.63
2018-11-29T04:40:49.930Z,13.87
2018-11-29T04:43:24.749Z,11.47
2018-11-29T04:46:54.383Z,13.77
2018-11-29T04:49:29.332Z,11.40
2018-11-29T04:52:03.789Z,13.83
2018-11-29T04:54:39.130Z,17.77
2018-11-29T04:57:13.422Z,16.27
2018-11-29T05:07:26.679Z,12.57
2018-11-29T05:10:01.366Z,12.73
2018-11-29T05:12:36.120Z,12.57
2018-11-29T05:15:13.433Z,12.27
2018-11-29T05:17:47.903Z,15.57
2018-11-29T05:20:22.755Z,15.17
2018-11-29T05:22:57.303Z,12.83
2018-11-29T05:25:32.374Z,11.40
2018-11-29T05:28:07.311Z,12.97
2018-11-29T05:30:45.496Z,15.67
2018-11-29T05:33:20.315Z,18.00
2018-11-29T05:35:54.927Z,15.47
2018-11-29T05:38:29.421Z,13.13
2018-11-29T05:41:03.910Z,15.20
2018-11-29T05:43:38.545Z,12.07
2018-11-29T05:46:12.928Z,10.63
2018-11-29T05:48:47.789Z,14.40
2018-11-29T05:51:22.420Z,13.18
2018-11-29T05:53:57.381Z,11.23
2018-11-29T05:56:32.292Z,11.37
2018-11-29T06:01:42.376Z,10.90
2018-11-29T06:04:17.407Z,13.05
2018-11-29T06:06:52.379Z,12.23
2018-11-29T06:12:02.293Z,11.90
2018-11-29T06:14:38.301Z,12.30
2018-11-29T06:17:13.294Z,11.20
2018-11-29T06:27:21.295Z,11.03
2018-11-29T06:32:45.294Z,15.17
2018-11-29T06:35:20.311Z,9.03
2018-11-29T06:40:28.333Z,13.77
2018-11-29T06:43:03.296Z,12.23
2018-11-29T06:45:38.346Z,11.87
2018-11-29T06:48:13.303Z,13.00
2018-11-29T06:50:49.290Z,13.00
2018-11-29T06:56:14.965Z,13.67
2018-11-29T06:58:51.718Z,8.80
2018-11-29T07:04:00.301Z,11.27
2018-11-29T07:06:34.806Z,11.87
2018-11-29T07:09:11.968Z,10.50
2018-11-29T07:14:20.341Z,10.07
2018-11-29T07:16:55.476Z,13.85
2018-11-29T07:19:30.302Z,11.37
2018-11-29T07:22:06.287Z,14.27
2018-11-29T07:24:41.304Z,15.57
2018-11-29T07:27:16.304Z,12.10
2018-11-29T07:35:09.718Z,11.65
2018-11-29T07:37:44.460Z,12.17
2018-11-29T07:43:20.416Z,15.43
2018-11-29T07:45:55.300Z,9.50
2018-11-29T07:51:03.293Z,12.73
2018-11-29T07:56:11.931Z,13.33
2018-11-29T07:58:51.595Z,13.58
2018-11-29T08:01:22.427Z,14.80
2018-11-29T08:03:57.326Z,15.13
2018-11-29T08:06:32.292Z,15.07
2018-11-29T08:14:13.780Z,22.77
2018-11-29T08:16:48.356Z,16.83
2018-11-29T08:21:56.288Z,13.50
2018-11-29T08:27:04.295Z,18.30
2018-11-29T08:32:12.341Z,19.13
2018-11-29T08:34:47.338Z,20.45
2018-11-29T08:42:28.304Z,18.57
2018-11-29T08:45:03.302Z,20.40
2018-11-29T08:47:38.297Z,19.07
2018-11-29T08:50:17.467Z,17.02
2018-11-29T08:55:25.397Z,16.87
2018-11-29T08:58:00.299Z,18.87
2018-11-29T09:00:36.303Z,17.90
2018-11-29T09:03:36.288Z,19.60
2018-11-29T09:06:11.282Z,18.63
2018-11-29T09:11:19.290Z,15.65
2018-11-29T09:16:27.296Z,17.47
2018-11-29T09:21:35.296Z,13.63
2018-11-29T09:26:43.301Z,16.40
2018-11-29T09:31:51.286Z,18.97
2018-11-29T09:36:59.302Z,22.57
2018-11-29T09:42:07.695Z,19.87
2018-11-29T09:44:42.783Z,16.60
2018-11-29T09:49:50.922Z,18.55
2018-11-29T09:52:25.409Z,17.60
2018-11-29T09:55:00.333Z,19.13
2018-11-29T09:57:35.302Z,16.70
2018-11-29T10:03:05.301Z,17.57
2018-11-29T10:05:40.406Z,16.10
2018-11-29T10:08:17.297Z,15.97
2018-11-29T10:10:54.285Z,18.70
2018-11-29T10:16:01.793Z,17.87
2018-11-29T10:18:37.051Z,20.62
2018-11-29T10:21:12.341Z,15.53
2018-11-29T10:23:47.299Z,17.40
2018-11-29T10:26:22.299Z,19.42
2018-11-29T10:31:30.327Z,19.20
2018-11-29T10:36:37.936Z,19.63
2018-11-29T10:39:13.749Z,21.05
2018-11-29T10:44:22.314Z,16.30
2018-11-29T10:46:57.293Z,22.10
2018-11-29T10:49:32.312Z,19.40
2018-11-29T10:52:07.290Z,18.67
2018-11-29T10:54:41.980Z,20.50
2018-11-29T10:57:19.291Z,19.03
2018-11-29T11:02:30.484Z,19.90
2018-11-29T11:05:05.328Z,22.20
2018-11-29T11:10:13.746Z,18.17
2018-11-29T11:12:48.439Z,21.03
2018-11-29T11:15:23.317Z,18.03
2018-11-29T11:25:53.650Z,17.52
2018-11-29T11:28:28.714Z,20.67
2018-11-29T11:31:03.782Z,26.68
2018-11-29T11:33:38.961Z,26.87
2018-11-29T11:36:14.290Z,21.85
2018-11-29T11:41:22.893Z,20.83
2018-11-29T11:43:57.957Z,20.48
2018-11-29T11:46:32.373Z,20.10
2018-11-29T11:51:40.280Z,21.93
2018-11-29T11:54:15.288Z,26.42
2018-11-29T11:56:50.283Z,21.80
2018-11-29T12:01:58.315Z,21.62
2018-11-29T12:08:17.656Z,21.03
2018-11-29T12:10:54.322Z,18.23
2018-11-29T12:13:32.954Z,21.93
2018-11-29T12:16:08.279Z,18.20
2018-11-29T12:18:43.343Z,18.10
2018-11-29T12:21:18.280Z,20.43
2018-11-29T12:26:31.588Z,18.00
2018-11-29T12:29:06.775Z,20.70
2018-11-29T12:32:03.273Z,18.98
2018-11-29T12:34:38.308Z,18.20
2018-11-29T12:37:13.293Z,18.70
2018-11-29T12:39:48.297Z,18.33
2018-11-29T12:42:23.283Z,18.57
2018-11-29T12:50:05.302Z,20.07
2018-11-29T12:52:39.956Z,20.00
2018-11-29T12:55:16.385Z,19.03
2018-11-29T13:00:26.714Z,18.07
2018-11-29T13:03:02.285Z,17.87
2018-11-29T13:05:40.305Z,15.87
2018-11-29T13:08:15.295Z,19.70
2018-11-29T13:10:56.288Z,18.73
2018-11-29T13:13:31.287Z,20.20
2018-11-29T13:16:05.813Z,19.43
2018-11-29T13:18:41.295Z,17.90
2018-11-29T13:21:16.281Z,17.70
2018-11-29T13:26:24.282Z,21.82
2018-11-29T13:28:59.287Z,27.17
2018-11-29T13:31:34.499Z,22.13
2018-11-29T13:34:09.369Z,20.23
2018-11-29T13:36:44.368Z,19.55
2018-11-29T13:41:52.482Z,20.77
2018-11-29T13:44:27.388Z,22.37
2018-11-29T13:47:02.370Z,19.00
2018-11-29T13:49:37.297Z,20.07
2018-11-29T13:52:12.281Z,23.60
2018-11-29T13:57:20.285Z,20.67
2018-11-29T14:02:27.955Z,18.10
2018-11-29T14:05:02.747Z,22.90
2018-11-29T14:07:37.615Z,22.00
2018-11-29T14:10:19.141Z,27.63
2018-11-29T14:15:29.747Z,22.93
2018-11-29T14:18:04.696Z,26.27
2018-11-29T14:20:39.353Z,23.50
2018-11-29T14:23:14.271Z,23.07
2018-11-29T14:25:51.394Z,25.47
2018-11-29T14:28:26.279Z,28.43
2018-11-29T14:31:02.958Z,31.50
2018-11-29T14:33:39.945Z,27.33
2018-11-29T14:36:14.451Z,25.80
2018-11-29T14:38:49.284Z,30.30
2018-11-29T14:41:24.288Z,24.27
2018-11-29T14:46:32.277Z,28.57
2018-11-29T14:51:48.029Z,26.20
2018-11-29T14:56:50.369Z,25.17
2018-11-29T14:59:25.321Z,26.70
2018-11-29T15:01:59.910Z,29.27
2018-11-29T15:04:34.689Z,33.27
2018-11-29T15:07:09.511Z,40.83
2018-11-29T15:09:44.289Z,35.23
2018-11-29T15:12:18.757Z,24.67
2018-11-29T15:14:53.388Z,25.43
2018-11-29T15:17:28.271Z,35.27
2018-11-29T15:22:36.284Z,25.00
2018-11-29T15:25:11.998Z,28.60
2018-11-29T15:27:46.907Z,28.20
2018-11-29T15:30:23.722Z,28.77
2018-11-29T15:32:58.423Z,26.60
2018-11-29T15:38:06.449Z,26.23
2018-11-29T15:40:41.549Z,27.23
2018-11-29T15:43:16.906Z,25.48
2018-11-29T15:45:53.519Z,23.67
2018-11-29T15:48:28.277Z,28.37
2018-11-29T15:51:03.269Z,33.37
2018-11-29T15:56:12.276Z,26.97
2018-11-29T16:01:20.281Z,26.93
2018-11-29T16:06:28.357Z,26.37
2018-11-29T16:11:36.287Z,28.87
2018-11-29T16:16:44.282Z,28.07
2018-11-29T16:19:19.292Z,35.20
2018-11-29T16:21:54.287Z,30.77
2018-11-29T16:24:29.304Z,51.80
2018-11-29T16:27:03.905Z,21.33
2018-11-29T16:29:39.292Z,25.20
2018-11-29T16:32:19.932Z,23.87
2018-11-29T16:34:54.957Z,19.35
2018-11-29T16:37:29.966Z,23.80
2018-11-29T16:40:04.687Z,24.90
2018-11-29T16:42:39.370Z,22.13
2018-11-29T16:47:51.427Z,23.90
2018-11-29T16:50:26.738Z,16.67
2018-11-29T16:53:01.430Z,16.83
2018-11-29T17:03:38.950Z,19.17
2018-11-29T17:06:13.643Z,17.60
2018-11-29T17:08:48.290Z,16.87
2018-11-29T17:11:23.282Z,17.42
2018-11-29T17:16:30.737Z,15.00
2018-11-29T17:19:05.416Z,17.65
2018-11-29T17:21:40.341Z,19.57
2018-11-29T17:24:14.933Z,15.45
2018-11-29T17:29:22.892Z,21.70
2018-11-29T17:31:57.460Z,18.10
2018-11-29T17:34:32.304Z,14.63
2018-11-29T17:37:06.775Z,18.13
2018-11-29T17:39:41.669Z,15.17
2018-11-29T17:47:21.942Z,17.17
2018-11-29T17:49:57.119Z,12.10
2018-11-29T17:52:31.714Z,32.33
2018-11-29T17:55:06.337Z,12.93
2018-11-29T18:00:36.323Z,11.50
2018-11-29T18:08:22.159Z,12.80
2018-11-29T18:11:03.505Z,13.87
2018-11-29T18:14:21.631Z,9.05
2018-11-29T18:16:56.953Z,17.65
2018-11-29T18:19:31.973Z,16.57
2018-11-29T18:24:43.316Z,12.80
2018-11-29T18:30:00.402Z,15.45
2018-11-29T18:32:35.674Z,16.57
2018-11-29T18:35:11.965Z,16.80
2018-11-29T18:37:46.760Z,23.77
2018-11-29T18:43:03.792Z,18.13
2018-11-29T18:45:38.739Z,11.07
2018-11-29T18:48:15.291Z,14.60
2018-11-29T18:50:52.698Z,14.93
2018-11-29T18:53:27.277Z,16.23
2018-11-29T18:56:02.106Z,17.05
2018-11-29T18:58:36.788Z,12.57
2018-11-29T19:01:11.957Z,17.92
2018-11-29T19:03:46.754Z,12.60
2018-11-29T19:06:21.482Z,21.48
2018-11-29T19:08:56.294Z,15.97
2018-11-29T19:11:30.952Z,13.80
2018-11-29T19:14:05.499Z,15.23
2018-11-29T19:17:38.280Z,23.60
2018-11-29T19:20:15.753Z,21.93
2018-11-29T19:22:50.683Z,16.70
2018-11-29T19:25:26.075Z,14.13
2018-11-29T19:28:00.964Z,13.60
2018-11-29T19:32:17.296Z,18.63
2018-11-29T19:37:25.126Z,14.57
2018-11-29T19:40:01.296Z,18.77
2018-11-29T19:42:36.288Z,24.37
2018-11-29T19:50:27.317Z,14.70
2018-11-29T20:00:49.033Z,20.00
2018-11-29T20:03:23.932Z,19.17
2018-11-29T20:05:58.413Z,17.47
2018-11-29T20:08:33.291Z,20.70
2018-11-29T20:11:08.514Z,17.50
2018-11-29T20:13:43.298Z,42.93
2018-11-29T20:16:18.276Z,29.15
2018-11-29T20:21:25.950Z,17.45
2018-11-29T20:24:00.405Z,15.80
2018-11-29T20:26:35.289Z,19.15
2018-11-29T20:31:42.800Z,16.33
2018-11-29T20:34:18.621Z,21.97
2018-11-29T20:36:53.287Z,18.12
2018-11-29T20:42:01.294Z,15.08
2018-11-29T20:47:09.285Z,20.17
2018-11-29T20:52:16.964Z,17.07
2018-11-29T20:57:49.865Z,16.45
2018-11-29T21:00:24.747Z,19.03
2018-11-29T21:02:59.290Z,12.57
2018-11-29T21:05:34.596Z,18.00
2018-11-29T21:08:10.301Z,17.73
2018-11-29T21:10:45.299Z,28.70
2018-11-29T21:17:21.333Z,22.70
2018-11-29T21:25:02.299Z,16.97
2018-11-29T21:27:36.956Z,16.80
2018-11-29T21:30:20.300Z,17.07
2018-11-29T21:38:01.528Z,17.83
2018-11-29T21:43:10.411Z,18.10
2018-11-29T21:48:22.297Z,20.33
2018-11-29T21:50:59.292Z,17.03
2018-11-29T21:56:06.953Z,15.10
2018-11-29T21:58:41.913Z,14.45
2018-11-29T22:01:16.747Z,17.50
2018-11-29T22:03:51.536Z,17.50
2018-11-29T22:11:31.686Z,13.18
2018-11-29T22:14:06.442Z,13.90
2018-11-29T22:16:43.347Z,17.25
2018-11-29T22:19:18.344Z,13.00
2018-11-29T22:21:53.282Z,10.20
2018-11-29T22:27:01.294Z,13.03
2018-11-29T22:32:10.281Z,8.77
2018-11-29T22:37:17.739Z,11.83
2018-11-29T22:39:52.743Z,13.77
2018-11-29T22:50:06.305Z,12.57
2018-11-29T22:52:41.121Z,11.17
2018-11-29T22:55:16.344Z,15.47
2018-11-29T23:00:24.327Z,10.00
2018-11-29T23:05:32.324Z,12.03
2018-11-29T23:08:07.283Z,16.43
2018-11-29T23:10:45.035Z,14.23
2018-11-29T23:13:19.956Z,14.35
2018-11-29T23:15:54.790Z,13.63
2018-11-29T23:18:29.391Z,10.13
2018-11-29T23:21:04.292Z,10.18
2018-11-29T23:26:12.295Z,10.53
2018-11-29T23:31:19.791Z,10.08
2018-11-29T23:33:54.709Z,6.40
2018-11-29T23:36:29.285Z,12.70
2018-11-29T23:41:37.277Z,9.48
2018-11-29T23:46:45.107Z,10.97
2018-11-29T23:49:20.346Z,11.73
2018-11-29T23:51:55.314Z,12.63
2018-11-29T23:57:02.955Z,15.57
2018-11-29T23:59:39.326Z,12.00
